Time;durP1;ratioP1;P1;durP2;ratioP2;P2;SDS_P1;SDS_P2;PMS_P1;PMS_P2;Temp;Humidity;BMP_temperature;BMP_pressure;BME280_temperature;BME280_humidity;BME280_pressure;Samples;Min_cycle;Max_cycle;Signal;HPM_P1;HPM_P2
2022/01/20 00:00:19;;;;;;;29.00;6.90;;;4.30;99.90;;;;;;2617832;39;20835;-77
2022/01/20 00:02:46;;;;;;;19.23;7.17;;;4.20;99.90;;;;;;2616359;31;20827;-76
2022/01/20 00:05:31;;;;;;;18.73;7.67;;;4.20;99.90;;;;;;2614580;54;20491;-77
2022/01/20 00:08:28;;;;;;;21.77;7.57;;;4.10;99.90;;;;;;2612892;39;21038;-76
2022/01/20 00:27:22;;;;;;;17.93;6.07;;;4.00;99.90;;;;;;2610668;47;20414;-77
2022/01/20 00:35:17;;;;;;;22.23;7.67;;;4.00;99.90;;;;;;2611547;54;20421;-76
2022/01/20 00:37:42;;;;;;;22.83;6.63;;;4.00;99.90;;;;;;2610742;47;20493;-76
2022/01/20 00:40:09;;;;;;;21.70;6.07;;;4.00;99.90;;;;;;2611085;54;20414;-77
2022/01/20 00:42:35;;;;;;;16.07;5.63;;;4.00;99.90;;;;;;2611685;54;20393;-76
2022/01/20 00:45:02;;;;;;;24.50;8.27;;;4.00;99.90;;;;;;2612274;54;20391;-76
2022/01/20 00:47:28;;;;;;;28.17;7.53;;;4.10;99.90;;;;;;2612622;54;20655;-76
2022/01/20 00:49:54;;;;;;;33.73;8.07;;;4.20;99.90;;;;;;2615042;54;20471;-76
2022/01/20 00:52:20;;;;;;;23.43;5.73;;;4.20;99.90;;;;;;2611607;54;20469;-77
2022/01/20 00:54:46;;;;;;;14.07;4.97;;;4.20;99.90;;;;;;2611938;54;20154;-77
2022/01/20 00:57:13;;;;;;;28.93;7.90;;;4.20;99.90;;;;;;2610804;54;20702;-75
2022/01/20 00:59:39;;;;;;;33.20;9.57;;;4.20;99.90;;;;;;2611735;54;20407;-77
2022/01/20 01:02:10;;;;;;;16.37;7.27;;;4.30;99.90;;;;;;2610921;54;20513;-77
2022/01/20 01:04:37;;;;;;;21.00;7.13;;;4.30;99.90;;;;;;2613437;54;20451;-76
2022/01/20 01:09:49;;;;;;;13.80;8.20;;;4.40;99.90;;;;;;2610889;47;20428;-76
2022/01/20 01:12:28;;;;;;;27.37;9.03;;;4.40;99.90;;;;;;2611097;54;21105;-77
2022/01/20 01:14:54;;;;;;;30.97;7.20;;;4.40;99.90;;;;;;2611824;54;21070;-77
2022/01/20 01:22:30;;;;;;;13.53;5.37;;;4.40;99.90;;;;;;2610002;47;20917;-76
2022/01/20 01:24:57;;;;;;;15.80;4.77;;;4.50;99.90;;;;;;2613556;54;20451;-77
2022/01/20 01:27:25;;;;;;;18.23;8.20;;;4.50;99.90;;;;;;2616030;39;20815;-77
2022/01/20 01:30:18;;;;;;;31.33;9.23;;;4.50;99.90;;;;;;2614892;54;20415;-76
2022/01/20 01:32:50;;;;;;;26.07;6.57;;;4.50;99.90;;;;;;2613291;47;20438;-76
2022/01/20 01:35:18;;;;;;;21.20;8.03;;;4.50;99.90;;;;;;2611220;54;20402;-76
2022/01/20 01:40:29;;;;;;;16.60;8.03;;;4.60;99.90;;;;;;2614492;47;20928;-76
2022/01/20 01:42:55;;;;;;;25.73;10.57;;;4.60;99.90;;;;;;2610655;50;20501;-75
2022/01/20 01:45:28;;;;;;;26.97;9.13;;;4.60;99.90;;;;;;2610905;54;20402;-75
2022/01/20 01:47:56;;;;;;;25.33;8.50;;;4.60;99.90;;;;;;2611277;54;20419;-76
2022/01/20 01:50:25;;;;;;;23.60;5.33;;;4.60;99.90;;;;;;2610879;47;20424;-76
2022/01/20 01:52:52;;;;;;;30.00;9.23;;;4.60;99.90;;;;;;2611431;47;20434;-76
2022/01/20 01:55:18;;;;;;;28.97;9.37;;;4.60;99.90;;;;;;2611787;47;20414;-76
2022/01/20 01:57:45;;;;;;;21.73;7.00;;;4.50;99.90;;;;;;2611777;39;20899;-76
2022/01/20 02:00:16;;;;;;;32.57;8.40;;;4.60;99.90;;;;;;2611294;54;20471;-77
2022/01/20 02:02:45;;;;;;;12.73;5.33;;;4.60;99.90;;;;;;2612640;31;20886;-76
2022/01/20 02:05:20;;;;;;;29.03;9.00;;;4.60;99.90;;;;;;2612585;54;20426;-76
2022/01/20 02:18:51;;;;;;;11.27;4.13;;;4.30;99.90;;;;;;2611379;54;21191;-77
2022/01/20 02:21:55;;;;;;;16.43;5.93;;;4.30;99.90;;;;;;2610440;54;20397;-76
2022/01/20 02:24:24;;;;;;;19.43;6.93;;;4.30;99.90;;;;;;2613194;54;20395;-76
2022/01/20 02:26:51;;;;;;;16.33;7.10;;;4.30;99.90;;;;;;2611520;54;20441;-77
2022/01/20 02:29:25;;;;;;;24.20;8.13;;;4.30;99.90;;;;;;2609990;47;20543;-77
2022/01/20 02:31:57;;;;;;;16.93;8.67;;;4.40;99.90;;;;;;2610653;54;20428;-77
2022/01/20 02:34:24;;;;;;;26.80;6.03;;;4.40;99.90;;;;;;2611508;47;20416;-76
2022/01/20 02:36:50;;;;;;;8.00;5.50;;;4.40;99.90;;;;;;2610904;39;21281;-76
2022/01/20 02:45:04;;;;;;;15.27;5.83;;;4.50;99.90;;;;;;2611533;39;21317;-75
2022/01/20 02:47:31;;;;;;;16.23;4.63;;;4.40;99.90;;;;;;2611782;39;20848;-77
2022/01/20 02:49:58;;;;;;;13.93;6.00;;;4.40;99.90;;;;;;2610154;54;20466;-76
2022/01/20 02:52:27;;;;;;;20.20;6.43;;;4.50;99.90;;;;;;2610612;51;20464;-76
2022/01/20 02:54:54;;;;;;;15.33;6.43;;;4.50;99.90;;;;;;2611009;54;20414;-76
2022/01/20 02:57:21;;;;;;;14.33;6.00;;;4.60;99.90;;;;;;2611868;54;20417;-76
2022/01/20 02:59:47;;;;;;;20.73;7.67;;;4.60;99.90;;;;;;2610941;47;20458;-76
2022/01/20 03:02:13;;;;;;;10.03;5.47;;;4.60;99.90;;;;;;2610206;54;20975;-76
2022/01/20 03:04:40;;;;;;;22.30;6.83;;;4.60;99.90;;;;;;2611983;39;20587;-77
2022/01/20 03:07:12;;;;;;;29.30;6.90;;;4.70;99.90;;;;;;2610130;39;20984;-76
2022/01/20 03:09:38;;;;;;;15.93;6.90;;;4.60;99.90;;;;;;2610617;47;20399;-76
2022/01/20 03:12:06;;;;;;;11.30;3.60;;;4.60;99.90;;;;;;2610984;39;20655;-77
2022/01/20 03:14:31;;;;;;;10.40;4.83;;;4.60;99.90;;;;;;2610388;54;20809;-76
2022/01/20 03:16:58;;;;;;;15.03;5.90;;;4.60;99.90;;;;;;2612972;54;20495;-76
2022/01/20 03:19:23;;;;;;;17.17;6.60;;;4.70;99.90;;;;;;2612154;54;20399;-76
2022/01/20 03:21:49;;;;;;;6.13;3.80;;;4.70;99.90;;;;;;2611505;47;20475;-75
2022/01/20 03:24:15;;;;;;;11.20;6.77;;;4.60;99.90;;;;;;2611972;54;20250;-76
2022/01/20 03:26:42;;;;;;;13.20;4.57;;;4.50;99.90;;;;;;2611512;47;20455;-75
2022/01/20 03:29:10;;;;;;;14.07;5.60;;;4.60;99.90;;;;;;2611816;50;20427;-76
2022/01/20 03:31:37;;;;;;;21.37;6.20;;;4.50;99.90;;;;;;2611635;54;20423;-76
2022/01/20 03:34:04;;;;;;;4.70;4.20;;;4.50;99.90;;;;;;2611508;47;20499;-76
2022/01/20 03:36:30;;;;;;;16.30;6.20;;;4.40;99.90;;;;;;2612378;54;20406;-75
2022/01/20 03:39:06;;;;;;;15.13;5.23;;;4.30;99.90;;;;;;2611217;47;21558;-76
2022/01/20 03:41:35;;;;;;;3.80;2.53;;;4.20;99.90;;;;;;2612009;54;20944;-75
2022/01/20 03:44:08;;;;;;;5.60;4.13;;;4.20;99.90;;;;;;2611101;54;20486;-77
2022/01/20 03:46:34;;;;;;;5.20;3.30;;;4.20;99.90;;;;;;2611248;47;20418;-75
2022/01/20 03:49:52;;;;;;;8.97;5.03;;;4.20;99.90;;;;;;2611596;47;20413;-76
2022/01/20 03:51:49;;;;;;;7.60;4.27;;;4.20;99.90;;;;;;2611198;47;20432;-74
2022/01/20 03:54:14;;;;;;;17.87;5.13;;;4.20;99.90;;;;;;2611579;47;20415;-76
2022/01/20 03:57:03;;;;;;;7.17;4.60;;;4.30;99.90;;;;;;2611577;54;20190;-76
2022/01/20 03:59:48;;;;;;;9.37;3.73;;;4.20;99.90;;;;;;2613092;54;20958;-76
2022/01/20 04:02:19;;;;;;;15.30;6.50;;;4.30;99.90;;;;;;2611683;54;20402;-76
2022/01/20 04:04:50;;;;;;;11.93;4.10;;;4.30;99.90;;;;;;2611881;47;20446;-75
2022/01/20 04:07:21;;;;;;;20.60;6.30;;;4.30;99.90;;;;;;2612229;51;20470;-76
2022/01/20 04:09:47;;;;;;;7.83;4.90;;;4.30;99.90;;;;;;2611297;54;20454;-75
2022/01/20 04:12:13;;;;;;;14.57;6.07;;;4.40;99.90;;;;;;2611447;54;20502;-76
2022/01/20 04:14:46;;;;;;;8.93;5.37;;;4.40;99.90;;;;;;2611980;54;20150;-76
2022/01/20 04:17:17;;;;;;;9.73;4.37;;;4.50;99.90;;;;;;2611847;54;20151;-75
2022/01/20 04:19:43;;;;;;;12.67;4.47;;;4.50;99.90;;;;;;2612945;54;20420;-76
2022/01/20 04:22:09;;;;;;;12.37;4.00;;;4.50;99.90;;;;;;2612667;39;21309;-75
2022/01/20 04:24:37;;;;;;;14.17;4.17;;;4.40;99.90;;;;;;2612656;54;20981;-76
2022/01/20 04:27:04;;;;;;;7.33;4.17;;;4.40;99.90;;;;;;2612510;54;20238;-76
2022/01/20 04:29:32;;;;;;;9.37;4.47;;;4.40;99.90;;;;;;2612418;50;20426;-76
2022/01/20 04:31:58;;;;;;;18.23;4.77;;;4.50;99.90;;;;;;2612205;54;20559;-76
2022/01/20 04:34:24;;;;;;;15.33;5.13;;;4.40;99.90;;;;;;2611736;51;20430;-77
2022/01/20 04:36:53;;;;;;;13.63;4.90;;;4.50;99.90;;;;;;2611876;54;20934;-76
2022/01/20 04:39:23;;;;;;;11.17;3.20;;;4.50;99.90;;;;;;2612539;47;20442;-76
2022/01/20 04:41:50;;;;;;;13.83;5.37;;;4.50;99.90;;;;;;2612420;54;20475;-76
2022/01/20 04:44:42;;;;;;;13.70;4.77;;;4.50;99.90;;;;;;2612137;54;20507;-76
2022/01/20 04:57:58;;;;;;;14.03;4.40;;;4.40;99.90;;;;;;2612384;47;20514;-76
2022/01/20 05:00:24;;;;;;;4.47;3.40;;;4.40;99.90;;;;;;2612674;46;21160;-76
2022/01/20 05:03:09;;;;;;;6.53;3.70;;;4.50;99.90;;;;;;2612110;54;20550;-75
2022/01/20 05:05:35;;;;;;;11.73;3.50;;;4.50;99.90;;;;;;2611200;47;20422;-76
2022/01/20 05:08:08;;;;;;;5.13;3.10;;;4.40;99.90;;;;;;2611310;54;20387;-77
2022/01/20 05:10:35;;;;;;;10.17;3.90;;;4.40;99.90;;;;;;2611958;39;20917;-76
2022/01/20 05:13:12;;;;;;;10.63;2.60;;;4.30;99.90;;;;;;2611888;47;20459;-76
2022/01/20 05:15:40;;;;;;;5.07;2.60;;;4.30;99.90;;;;;;2611499;51;20423;-76
2022/01/20 05:18:07;;;;;;;4.73;2.83;;;4.30;99.90;;;;;;2614568;39;20799;-76
2022/01/20 05:20:34;;;;;;;9.80;5.50;;;4.30;99.90;;;;;;2611460;47;20411;-76
2022/01/20 05:23:00;;;;;;;12.80;3.67;;;4.30;99.90;;;;;;2612398;54;21071;-76
2022/01/20 05:25:28;;;;;;;4.80;4.23;;;4.30;99.90;;;;;;2611696;51;20426;-76
2022/01/20 05:27:54;;;;;;;10.03;3.80;;;4.40;99.90;;;;;;2611820;54;20426;-76
2022/01/20 05:30:20;;;;;;;9.50;3.20;;;4.30;99.90;;;;;;2610211;51;20982;-76
2022/01/20 05:33:07;;;;;;;3.60;2.90;;;4.30;99.90;;;;;;2611334;54;20403;-76
2022/01/20 05:35:33;;;;;;;15.80;5.27;;;4.30;99.90;;;;;;2610933;54;21034;-76
2022/01/20 05:37:59;;;;;;;6.30;2.90;;;4.30;99.90;;;;;;2611051;54;20407;-76
2022/01/20 05:40:27;;;;;;;4.00;2.93;;;4.30;99.90;;;;;;2611943;47;20482;-76
2022/01/20 05:42:53;;;;;;;8.10;3.40;;;4.30;99.90;;;;;;2611335;51;20454;-77
2022/01/20 05:45:20;;;;;;;16.13;4.10;;;4.20;99.90;;;;;;2611317;50;20568;-77
2022/01/20 05:47:48;;;;;;;18.10;3.97;;;4.10;99.90;;;;;;2610762;54;20484;-76
2022/01/20 05:50:20;;;;;;;6.50;2.67;;;4.20;99.90;;;;;;2609102;54;20391;-77
2022/01/20 05:52:47;;;;;;;8.73;2.57;;;4.00;99.90;;;;;;2610047;47;20490;-75
2022/01/20 05:55:18;;;;;;;6.20;3.10;;;4.10;99.90;;;;;;2611425;47;20505;-76
2022/01/20 05:57:46;;;;;;;8.30;3.30;;;4.10;99.90;;;;;;2612090;54;20423;-76
2022/01/20 06:00:17;;;;;;;7.13;3.30;;;4.10;99.90;;;;;;2612444;54;20432;-76
2022/01/20 06:05:32;;;;;;;8.03;3.17;;;4.10;99.90;;;;;;2611069;47;20461;-78
2022/01/20 06:07:58;;;;;;;7.80;3.53;;;4.00;99.90;;;;;;2611073;54;20423;-76
2022/01/20 06:10:24;;;;;;;4.23;2.57;;;3.90;99.90;;;;;;2613192;47;20437;-78
2022/01/20 06:12:55;;;;;;;6.20;2.20;;;3.90;99.90;;;;;;2611299;39;20880;-76
2022/01/20 06:15:21;;;;;;;5.40;2.20;;;3.80;99.90;;;;;;2610659;47;20402;-76
2022/01/20 06:17:47;;;;;;;6.60;2.43;;;3.70;99.90;;;;;;2609079;47;20583;-76
2022/01/20 06:20:13;;;;;;;7.00;2.83;;;3.60;99.90;;;;;;2613012;54;20973;-75
2022/01/20 06:22:40;;;;;;;14.10;4.10;;;3.60;99.90;;;;;;2611563;47;20174;-76
2022/01/20 06:25:07;;;;;;;3.57;2.43;;;3.60;99.90;;;;;;2611636;54;20420;-76
2022/01/20 06:27:34;;;;;;;6.57;2.20;;;3.60;99.90;;;;;;2612093;47;20419;-76
2022/01/20 06:30:00;;;;;;;15.80;3.57;;;3.60;99.90;;;;;;2611325;54;20422;-75
2022/01/20 06:32:28;;;;;;;7.17;3.60;;;3.60;99.90;;;;;;2612043;53;20972;-76
2022/01/20 06:34:55;;;;;;;5.07;3.10;;;3.80;99.90;;;;;;2611075;39;20628;-76
2022/01/20 06:37:21;;;;;;;14.87;3.60;;;3.80;99.90;;;;;;2612804;54;20427;-76
2022/01/20 06:39:47;;;;;;;9.97;2.97;;;3.60;99.90;;;;;;2611212;47;20523;-76
2022/01/20 06:42:13;;;;;;;11.23;2.43;;;3.60;99.90;;;;;;2611469;54;20515;-76
2022/01/20 06:44:39;;;;;;;10.07;3.00;;;3.60;99.90;;;;;;2610881;39;20920;-75
2022/01/20 06:47:06;;;;;;;7.00;3.10;;;3.60;99.90;;;;;;2611168;51;20438;-75
2022/01/20 06:49:33;;;;;;;10.17;3.23;;;3.60;99.90;;;;;;2611948;54;20424;-76
2022/01/20 06:52:05;;;;;;;13.50;4.97;;;3.60;99.90;;;;;;2610294;54;22803;-76
2022/01/20 06:54:32;;;;;;;13.43;4.43;;;3.70;99.90;;;;;;2613131;54;20427;-76
2022/01/20 06:56:59;;;;;;;15.33;3.90;;;3.70;99.90;;;;;;2612366;54;20398;-75
2022/01/20 06:59:26;;;;;;;10.77;4.30;;;3.70;99.90;;;;;;2611518;54;20579;-75
2022/01/20 07:01:52;;;;;;;11.63;3.70;;;3.70;99.90;;;;;;2611140;54;20963;-75
2022/01/20 07:04:32;;;;;;;13.67;3.50;;;3.60;99.90;;;;;;2610633;54;20467;-75
2022/01/20 07:06:59;;;;;;;14.63;3.67;;;3.60;99.90;;;;;;2611335;54;20427;-75
2022/01/20 07:10:04;;;;;;;9.93;3.70;;;3.70;99.90;;;;;;2613214;54;20439;-77
2022/01/20 07:12:48;;;;;;;15.37;4.67;;;3.60;99.90;;;;;;2610948;47;20482;-77
2022/01/20 07:15:16;;;;;;;7.53;2.97;;;3.70;99.90;;;;;;2616884;47;20492;-76
2022/01/20 07:17:43;;;;;;;10.23;3.63;;;3.60;99.90;;;;;;2618740;39;21132;-77
2022/01/20 07:20:13;;;;;;;12.17;3.50;;;3.60;99.90;;;;;;2611232;54;20428;-76
2022/01/20 07:22:58;;;;;;;9.50;3.23;;;3.60;99.90;;;;;;2610979;54;20439;-76
2022/01/20 07:25:24;;;;;;;9.17;2.83;;;3.60;99.90;;;;;;2608986;47;20983;-76
2022/01/20 07:27:59;;;;;;;10.23;3.20;;;3.50;99.90;;;;;;2609090;46;20474;-75
2022/01/20 07:30:26;;;;;;;15.13;2.90;;;3.40;99.90;;;;;;2608854;54;20605;-76
2022/01/20 07:32:52;;;;;;;9.63;3.60;;;3.50;99.90;;;;;;2609508;39;21191;-77
2022/01/20 07:35:20;;;;;;;12.50;3.30;;;3.50;99.90;;;;;;2608570;47;20416;-78
2022/01/20 07:37:47;;;;;;;14.80;3.63;;;3.40;99.90;;;;;;2608841;54;20395;-76
2022/01/20 07:40:13;;;;;;;10.70;3.50;;;3.30;99.90;;;;;;2608639;39;20917;-77
2022/01/20 07:42:40;;;;;;;14.30;4.57;;;3.20;99.90;;;;;;2609592;39;21264;-77
2022/01/20 07:45:19;;;;;;;9.67;4.00;;;3.10;99.90;;;;;;2609817;47;21015;-76
2022/01/20 07:48:07;;;;;;;9.30;4.00;;;3.00;99.90;;;;;;2609078;47;20427;-76
2022/01/20 07:50:34;;;;;;;8.97;3.67;;;3.00;99.90;;;;;;2608244;39;20811;-76
2022/01/20 07:53:01;;;;;;;12.33;3.30;;;3.10;99.90;;;;;;2608498;54;20824;-77
2022/01/20 07:55:27;;;;;;;14.63;2.90;;;3.10;99.90;;;;;;2608150;51;20430;-76
2022/01/20 07:57:53;;;;;;;9.23;3.50;;;3.10;99.90;;;;;;2610609;31;20868;-76
2022/01/20 08:00:23;;;;;;;16.53;4.13;;;3.20;99.90;;;;;;2608073;54;20478;-77
2022/01/20 08:02:51;;;;;;;13.27;5.20;;;3.30;99.90;;;;;;2609571;39;20912;-76
2022/01/20 08:05:30;;;;;;;12.87;4.20;;;3.30;99.90;;;;;;2611416;47;20441;-76
2022/01/20 08:07:56;;;;;;;15.90;4.27;;;3.30;99.90;;;;;;2609720;47;20450;-77
2022/01/20 08:10:21;;;;;;;13.87;4.63;;;3.30;99.90;;;;;;2607409;47;20446;-77
2022/01/20 08:12:47;;;;;;;12.73;3.20;;;3.20;99.90;;;;;;2607901;47;20466;-76
2022/01/20 08:15:20;;;;;;;8.80;3.60;;;3.30;99.90;;;;;;2608586;39;20603;-77
2022/01/20 08:18:13;;;;;;;10.30;2.97;;;3.30;99.90;;;;;;2608491;54;20427;-78
2022/01/20 08:20:39;;;;;;;22.13;4.30;;;3.30;99.90;;;;;;2607883;54;20418;-77
2022/01/20 08:23:09;;;;;;;8.57;2.63;;;3.30;99.90;;;;;;2608575;39;20898;-76
2022/01/20 08:25:35;;;;;;;11.10;3.90;;;3.50;99.90;;;;;;2607961;47;21152;-77
2022/01/20 08:28:01;;;;;;;10.53;4.13;;;3.70;99.90;;;;;;2608787;47;20182;-77
2022/01/20 08:30:29;;;;;;;11.40;2.80;;;4.10;99.90;;;;;;2607858;39;20812;-76
2022/01/20 08:32:59;;;;;;;6.00;3.67;;;4.70;99.90;;;;;;2607939;54;20523;-78
2022/01/20 08:35:40;;;;;;;15.23;4.17;;;4.90;99.90;;;;;;2609742;39;20802;-76
2022/01/20 08:38:15;;;;;;;14.90;4.33;;;5.00;99.90;;;;;;2608014;39;20842;-78
2022/01/20 08:40:41;;;;;;;16.30;5.07;;;4.50;99.90;;;;;;2607619;54;20408;-77
2022/01/20 08:43:07;;;;;;;9.33;3.73;;;4.30;99.90;;;;;;2608154;54;20435;-77
2022/01/20 08:45:39;;;;;;;4.90;3.30;;;4.20;99.90;;;;;;2608549;47;20414;-76
2022/01/20 08:48:08;;;;;;;18.67;3.53;;;4.30;99.90;;;;;;2606814;54;20418;-78
2022/01/20 08:50:53;;;;;;;8.70;3.23;;;4.40;99.90;;;;;;2610785;54;20443;-80
2022/01/20 08:53:19;;;;;;;7.63;2.40;;;4.50;99.90;;;;;;2607546;54;20428;-76
2022/01/20 08:55:45;;;;;;;7.80;2.93;;;4.50;99.90;;;;;;2608781;47;21307;-76
2022/01/20 08:58:13;;;;;;;6.20;3.47;;;4.30;99.90;;;;;;2608366;54;20461;-76
2022/01/20 09:00:40;;;;;;;6.27;2.37;;;4.50;99.90;;;;;;2607793;46;20430;-75
2022/01/20 09:03:09;;;;;;;13.43;3.40;;;4.50;99.90;;;;;;2607906;47;20426;-76
2022/01/20 09:05:35;;;;;;;2.73;2.30;;;4.50;99.90;;;;;;2611905;54;20482;-77
2022/01/20 09:08:13;;;;;;;8.80;3.13;;;4.60;99.90;;;;;;2609264;54;20412;-76
2022/01/20 09:10:47;;;;;;;3.53;2.80;;;4.60;99.90;;;;;;2608949;54;21024;-76
2022/01/20 09:16:02;;;;;;;6.23;2.90;;;4.20;99.90;;;;;;2608483;47;21088;-78
2022/01/20 09:18:43;;;;;;;11.60;4.10;;;4.10;99.90;;;;;;2608757;47;20423;-76
2022/01/20 09:21:09;;;;;;;13.63;3.33;;;4.10;99.90;;;;;;2607423;47;20494;-77
2022/01/20 09:23:37;;;;;;;6.77;3.20;;;4.20;99.90;;;;;;2608702;39;21078;-77
2022/01/20 09:26:03;;;;;;;8.13;2.63;;;4.10;99.90;;;;;;2610062;54;20963;-77
2022/01/20 09:28:34;;;;;;;5.07;3.13;;;4.20;99.90;;;;;;2608482;47;20430;-76
2022/01/20 09:31:02;;;;;;;2.10;1.90;;;4.50;99.90;;;;;;2609158;46;20431;-76
2022/01/20 09:33:29;;;;;;;7.17;3.47;;;4.60;99.90;;;;;;2607825;47;20981;-75
2022/01/20 09:36:00;;;;;;;7.87;3.23;;;4.80;99.90;;;;;;2609696;54;20519;-79
2022/01/20 09:38:30;;;;;;;7.80;2.67;;;5.00;99.90;;;;;;2607792;51;20427;-77
2022/01/20 09:40:57;;;;;;;6.03;2.97;;;4.90;99.90;;;;;;2608624;47;20559;-77
2022/01/20 09:43:24;;;;;;;13.00;2.77;;;5.30;99.90;;;;;;2607804;47;20526;-76
2022/01/20 09:45:55;;;;;;;7.50;3.07;;;5.60;99.90;;;;;;2608795;54;20415;-76
2022/01/20 09:48:23;;;;;;;6.90;2.20;;;5.20;99.90;;;;;;2608787;47;20448;-77
2022/01/20 09:51:11;;;;;;;5.47;3.30;;;5.10;99.90;;;;;;2608324;54;20534;-77
2022/01/20 09:53:40;;;;;;;13.60;3.10;;;5.10;99.90;;;;;;2608349;54;20424;-76
2022/01/20 09:56:17;;;;;;;7.70;2.77;;;5.30;99.90;;;;;;2608006;54;20423;-76
2022/01/20 09:58:43;;;;;;;8.63;3.30;;;5.20;99.90;;;;;;2610868;54;20420;-78
2022/01/20 10:01:10;;;;;;;7.10;3.17;;;5.20;99.90;;;;;;2610165;47;20446;-78
2022/01/20 10:03:38;;;;;;;9.23;3.70;;;5.00;99.90;;;;;;2608117;46;20465;-78
2022/01/20 10:06:05;;;;;;;26.43;4.10;;;4.80;99.90;;;;;;2613788;54;20400;-77
2022/01/20 10:08:35;;;;;;;4.87;2.80;;;4.90;99.90;;;;;;2609134;47;20419;-77
2022/01/20 10:11:31;;;;;;;8.00;2.53;;;4.60;99.90;;;;;;2608096;46;20967;-78
2022/01/20 10:14:13;;;;;;;13.93;4.20;;;4.60;99.90;;;;;;2608212;47;20454;-76
2022/01/20 10:16:57;;;;;;;10.37;3.73;;;4.60;99.90;;;;;;2606421;47;21016;-77
2022/01/20 10:19:29;;;;;;;9.87;3.90;;;4.80;99.90;;;;;;2626964;36;20513;-78
2022/01/20 10:22:12;;;;;;;12.17;3.10;;;4.80;99.90;;;;;;2607656;51;20922;-78
2022/01/20 10:25:14;;;;;;;3.57;2.60;;;4.60;99.90;;;;;;2608754;54;20423;-75
2022/01/20 10:28:00;;;;;;;9.40;4.20;;;4.60;99.90;;;;;;2610079;47;20458;-76
2022/01/20 10:30:28;;;;;;;14.60;6.80;;;4.50;99.90;;;;;;2608983;54;20407;-77
2022/01/20 10:32:59;;;;;;;12.33;4.83;;;4.60;99.90;;;;;;2608250;46;20419;-77
2022/01/20 10:35:39;;;;;;;20.27;5.40;;;4.80;99.90;;;;;;2610154;47;20415;-77
2022/01/20 10:38:20;;;;;;;5.77;3.60;;;4.90;99.90;;;;;;2606933;47;22756;-76
2022/01/20 10:40:59;;;;;;;9.50;3.20;;;4.70;99.90;;;;;;2608113;51;20498;-77
2022/01/20 10:43:35;;;;;;;4.63;2.60;;;4.80;99.90;;;;;;2608947;46;20463;-76
2022/01/20 10:46:53;;;;;;;8.33;4.80;;;4.60;99.90;;;;;;2608010;47;20396;-76
2022/01/20 10:49:30;;;;;;;9.30;5.17;;;4.90;99.90;;;;;;2605280;47;20422;-77
2022/01/20 10:52:03;;;;;;;12.27;4.10;;;5.00;99.90;;;;;;2606730;54;21075;-78
2022/01/20 10:54:43;;;;;;;9.37;4.13;;;5.10;99.90;;;;;;2607644;54;20967;-77
2022/01/20 10:57:15;;;;;;;8.57;4.37;;;5.10;99.90;;;;;;2607817;47;20431;-78
2022/01/20 10:59:53;;;;;;;13.23;4.70;;;5.10;99.90;;;;;;2607220;46;20443;-77
2022/01/20 11:02:29;;;;;;;14.10;6.23;;;5.50;99.90;;;;;;2608723;54;20420;-77
2022/01/20 11:04:59;;;;;;;12.07;4.87;;;5.60;99.90;;;;;;2607889;47;20447;-78
2022/01/20 11:07:26;;;;;;;8.87;4.10;;;5.80;99.90;;;;;;2604862;54;20455;-77
2022/01/20 11:10:03;;;;;;;4.90;3.60;;;5.70;99.90;;;;;;2606978;47;20423;-76
2022/01/20 11:12:41;;;;;;;8.63;4.00;;;5.50;99.90;;;;;;2606905;54;20403;-78
2022/01/20 11:15:19;;;;;;;9.40;4.00;;;5.30;99.90;;;;;;2607718;47;20424;-78
2022/01/20 11:17:53;;;;;;;5.63;2.63;;;5.50;99.90;;;;;;2607719;54;22085;-77
2022/01/20 11:20:22;;;;;;;4.80;2.20;;;5.60;99.90;;;;;;2607894;54;20421;-78
2022/01/20 11:22:53;;;;;;;8.77;4.00;;;5.30;99.90;;;;;;2607783;54;20420;-77
2022/01/20 11:25:24;;;;;;;7.30;3.23;;;5.20;99.90;;;;;;2609293;54;20439;-80
2022/01/20 11:28:24;;;;;;;5.73;3.07;;;5.10;99.90;;;;;;2609420;39;21153;-78
2022/01/20 11:31:13;;;;;;;8.03;2.60;;;5.90;99.90;;;;;;2608213;47;21014;-76
2022/01/20 11:33:45;;;;;;;4.30;2.60;;;7.70;99.90;;;;;;2608363;54;20431;-77
2022/01/20 11:36:26;;;;;;;5.40;2.90;;;8.20;99.90;;;;;;2609385;47;20428;-77
2022/01/20 11:39:00;;;;;;;21.97;3.60;;;8.30;99.90;;;;;;2610220;39;21390;-77
2022/01/20 11:41:34;;;;;;;8.93;4.10;;;6.90;99.90;;;;;;2608640;47;20423;-77
2022/01/20 11:44:09;;;;;;;12.67;4.60;;;7.90;99.90;;;;;;2607988;54;20410;-78
2022/01/20 11:46:43;;;;;;;10.40;2.90;;;8.40;99.90;;;;;;2608789;39;20708;-77
2022/01/20 11:49:11;;;;;;;11.27;3.30;;;7.90;99.90;;;;;;2608498;54;20395;-77
2022/01/20 11:51:48;;;;;;;7.83;3.47;;;7.20;99.90;;;;;;2608677;54;20467;-77
2022/01/20 11:54:36;;;;;;;12.90;2.50;;;6.00;99.90;;;;;;2609146;47;20407;-77
2022/01/20 11:57:08;;;;;;;11.60;3.30;;;5.50;99.90;;;;;;2609492;39;21096;-76
2022/01/20 11:59:40;;;;;;;9.90;4.30;;;5.40;99.90;;;;;;2609974;54;20432;-77
2022/01/20 12:02:06;;;;;;;5.73;3.37;;;5.10;99.90;;;;;;2610488;47;20435;-77
2022/01/20 12:04:38;;;;;;;11.23;3.43;;;4.80;99.90;;;;;;2610517;47;20972;-77
2022/01/20 12:07:22;;;;;;;8.17;2.50;;;4.70;99.90;;;;;;2608429;47;20446;-76
2022/01/20 12:09:50;;;;;;;4.77;3.50;;;4.80;99.90;;;;;;2608346;47;20960;-78
2022/01/20 12:12:23;;;;;;;6.90;4.00;;;4.80;99.90;;;;;;2612066;54;20470;-77
2022/01/20 12:14:49;;;;;;;5.80;2.43;;;4.70;99.90;;;;;;2607981;39;21276;-77
2022/01/20 12:17:15;;;;;;;8.53;2.67;;;4.60;99.90;;;;;;2609181;47;20450;-77
2022/01/20 12:19:46;;;;;;;15.90;3.80;;;4.60;99.90;;;;;;2610263;39;20866;-78
2022/01/20 12:22:12;;;;;;;8.63;3.00;;;4.70;99.90;;;;;;2608764;47;20461;-76
2022/01/20 12:24:48;;;;;;;6.47;3.70;;;5.10;99.90;;;;;;2608087;47;20428;-77
2022/01/20 12:27:19;;;;;;;6.27;3.00;;;5.70;99.90;;;;;;2608387;47;20178;-77
2022/01/20 12:29:45;;;;;;;8.90;3.90;;;6.10;99.90;;;;;;2608396;39;20857;-79
2022/01/20 12:32:17;;;;;;;6.73;2.83;;;6.40;99.90;;;;;;2607471;54;20415;-77
2022/01/20 12:34:43;;;;;;;4.03;2.87;;;6.40;99.90;;;;;;2609159;47;20459;-78
2022/01/20 12:37:10;;;;;;;5.80;3.63;;;5.80;99.90;;;;;;2608104;39;20798;-78
2022/01/20 12:39:39;;;;;;;9.83;2.77;;;5.60;99.90;;;;;;2608308;54;20395;-78
2022/01/20 12:42:10;;;;;;;6.57;2.43;;;5.60;99.90;;;;;;2607901;54;20417;-77
2022/01/20 12:45:54;;;;;;;12.93;3.13;;;5.80;99.90;;;;;;2608018;54;21337;-79
2022/01/20 12:47:29;;;;;;;8.43;3.10;;;6.50;99.90;;;;;;2607783;54;20439;-77
2022/01/20 12:49:57;;;;;;;4.00;2.70;;;6.20;99.90;;;;;;2606472;54;20997;-77
2022/01/20 12:52:23;;;;;;;4.03;2.60;;;6.00;99.90;;;;;;2606653;54;20399;-77
2022/01/20 12:54:50;;;;;;;13.77;2.40;;;7.70;99.90;;;;;;2607328;54;20405;-77
2022/01/20 12:57:17;;;;;;;20.27;3.23;;;8.80;99.90;;;;;;2607057;47;20465;-77
2022/01/20 12:59:45;;;;;;;7.03;3.30;;;7.60;99.90;;;;;;2609434;39;20894;-77
2022/01/20 13:02:23;;;;;;;9.30;3.70;;;6.60;99.90;;;;;;2608505;51;20475;-76
2022/01/20 13:04:55;;;;;;;8.40;3.00;;;6.20;99.90;;;;;;2608977;47;20463;-78
2022/01/20 13:07:21;;;;;;;7.10;3.10;;;7.60;99.90;;;;;;2609640;54;20954;-79
2022/01/20 13:09:59;;;;;;;12.50;2.80;;;9.50;99.10;;;;;;2607246;47;20418;-78
2022/01/20 13:12:36;;;;;;;7.03;2.63;;;8.90;99.90;;;;;;2607635;47;21124;-77
2022/01/20 13:15:03;;;;;;;10.73;2.97;;;9.80;95.90;;;;;;2604575;54;20414;-76
2022/01/20 13:17:34;;;;;;;5.33;2.23;;;9.30;99.90;;;;;;2608050;39;20818;-76
2022/01/20 13:20:11;;;;;;;12.97;3.07;;;9.90;95.10;;;;;;2609358;54;20407;-77
2022/01/20 13:22:53;;;;;;;8.73;2.50;;;8.50;99.90;;;;;;2607828;47;20403;-78
2022/01/20 13:25:19;;;;;;;7.20;3.80;;;6.70;99.90;;;;;;2610569;54;20407;-78
2022/01/20 13:28:03;;;;;;;6.27;3.40;;;6.20;99.90;;;;;;2609074;39;20817;-76
2022/01/20 13:30:40;;;;;;;9.73;4.57;;;7.10;99.90;;;;;;2607479;54;20424;-76
2022/01/20 13:33:24;;;;;;;6.30;2.43;;;8.40;99.90;;;;;;2608497;54;20432;-78
2022/01/20 13:35:59;;;;;;;11.17;3.50;;;7.50;99.90;;;;;;2610140;39;20797;-77
2022/01/20 13:38:34;;;;;;;11.60;3.40;;;7.10;99.90;;;;;;2608757;47;20597;-76
2022/01/20 13:41:06;;;;;;;11.53;3.17;;;7.30;99.90;;;;;;2608324;47;20431;-79
2022/01/20 13:46:21;;;;;;;6.20;3.10;;;6.30;99.90;;;;;;2609112;54;21021;-77
2022/01/20 13:48:47;;;;;;;9.40;3.13;;;6.60;99.90;;;;;;2607146;47;20432;-78
2022/01/20 13:51:15;;;;;;;6.77;2.83;;;6.50;99.90;;;;;;2610584;39;21404;-77
2022/01/20 13:53:42;;;;;;;6.00;2.67;;;7.50;99.90;;;;;;2609026;47;20435;-77
2022/01/20 13:56:12;;;;;;;11.67;3.33;;;8.10;97.30;;;;;;2608229;39;21018;-77
2022/01/20 13:58:38;;;;;;;6.87;3.10;;;8.00;99.90;;;;;;2609568;47;20412;-79
2022/01/20 14:01:09;;;;;;;2.50;2.30;;;7.20;99.90;;;;;;2608691;54;20414;-77
2022/01/20 14:03:36;;;;;;;5.57;3.00;;;6.40;99.90;;;;;;2609695;54;20431;-78
2022/01/20 14:06:02;;;;;;;5.63;3.60;;;5.70;99.90;;;;;;2610167;54;21280;-77
2022/01/20 14:08:28;;;;;;;5.33;2.60;;;5.10;99.90;;;;;;2608492;49;20419;-79
2022/01/20 14:10:55;;;;;;;2.70;1.37;;;4.60;99.90;;;;;;2612135;31;20904;-78
2022/01/20 14:13:22;;;;;;;2.37;1.47;;;3.60;99.90;;;;;;2613519;47;20727;-77
2022/01/20 14:15:51;;;;;;;2.63;1.53;;;2.90;99.90;;;;;;2610670;39;20776;-77
2022/01/20 14:18:20;;;;;;;7.03;5.37;;;2.50;99.90;;;;;;2614642;39;21066;-79
2022/01/20 14:20:47;;;;;;;7.13;5.40;;;2.40;99.90;;;;;;2612418;47;20461;-79